createdAt,value
2022-08-20T00:00:32.158Z,16.92
2022-08-20T00:03:02.182Z,17.35
2022-08-20T00:05:32.553Z,18.67
2022-08-20T00:08:00.475Z,13.27
2022-08-20T00:10:28.624Z,18.27
2022-08-20T00:12:56.086Z,16.70
2022-08-20T00:15:28.436Z,14.13
2022-08-20T00:17:56.100Z,21.52
2022-08-20T00:20:25.912Z,14.98
2022-08-20T00:22:53.267Z,16.45
2022-08-20T00:25:20.711Z,17.92
2022-08-20T00:27:48.470Z,17.58
2022-08-20T00:30:16.040Z,16.17
2022-08-20T00:33:20.502Z,16.80
2022-08-20T00:35:50.203Z,12.15
2022-08-20T00:38:17.896Z,10.65
2022-08-20T00:40:48.657Z,12.20
2022-08-20T00:43:36.478Z,12.68
2022-08-20T00:46:12.952Z,11.18
2022-08-20T00:48:41.683Z,10.90
2022-08-20T00:51:27.262Z,14.48
2022-08-20T00:54:02.795Z,11.65
2022-08-20T00:56:31.159Z,14.35
2022-08-20T00:58:58.788Z,13.43
2022-08-20T01:01:26.206Z,10.25
2022-08-20T01:03:57.558Z,9.85
2022-08-20T01:06:25.254Z,16.42
2022-08-20T01:08:52.612Z,13.68
2022-08-20T01:11:30.362Z,17.20
2022-08-20T01:14:36.620Z,19.58
2022-08-20T01:17:07.833Z,13.18
2022-08-20T01:19:38.564Z,14.30
2022-08-20T01:22:25.936Z,16.55
2022-08-20T01:24:55.431Z,17.27
2022-08-20T01:27:22.758Z,17.77
2022-08-20T01:29:51.945Z,19.98
2022-08-20T01:32:19.641Z,21.08
2022-08-20T01:34:47.026Z,22.37
2022-08-20T01:37:14.466Z,21.40
2022-08-20T01:39:42.168Z,20.98
2022-08-20T01:42:14.435Z,19.17
2022-08-20T01:44:43.058Z,23.67
2022-08-20T01:47:25.613Z,19.17
2022-08-20T01:50:06.602Z,30.48
2022-08-20T01:52:47.235Z,16.87
2022-08-20T01:55:14.914Z,17.52
2022-08-20T01:57:42.279Z,18.77
2022-08-20T02:00:20.155Z,22.17
2022-08-20T02:02:50.462Z,22.00
2022-08-20T02:05:18.547Z,21.70
2022-08-20T02:07:46.021Z,21.52
2022-08-20T02:10:14.478Z,22.08
2022-08-20T02:12:42.102Z,21.10
2022-08-20T02:15:10.532Z,22.70
2022-08-20T02:17:39.078Z,19.52
2022-08-20T02:20:12.427Z,17.12
2022-08-20T02:22:50.137Z,13.50
2022-08-20T02:25:20.405Z,17.52
2022-08-20T02:27:51.893Z,13.75
2022-08-20T02:30:27.969Z,18.40
2022-08-20T02:35:26.029Z,15.93
2022-08-20T02:37:53.594Z,20.35
2022-08-20T02:40:27.454Z,18.73
2022-08-20T02:42:59.465Z,19.83
2022-08-20T02:45:26.947Z,15.98
2022-08-20T02:47:55.748Z,13.85
2022-08-20T02:50:23.948Z,19.50
2022-08-20T02:52:52.022Z,15.05
2022-08-20T02:55:26.929Z,15.05
2022-08-20T02:57:58.617Z,15.05
2022-08-20T03:00:27.251Z,16.58
2022-08-20T03:02:54.690Z,21.33
2022-08-20T03:05:22.372Z,12.90
2022-08-20T03:07:53.410Z,16.90
2022-08-20T03:10:29.408Z,13.55
2022-08-20T03:12:57.086Z,20.00
2022-08-20T03:15:24.588Z,12.48
2022-08-20T03:17:52.388Z,13.60
2022-08-20T03:20:23.761Z,16.50
2022-08-20T03:22:51.545Z,16.55
2022-08-20T03:25:18.996Z,21.30
2022-08-20T03:27:47.320Z,14.23
2022-08-20T03:30:22.199Z,15.87
2022-08-20T03:32:50.196Z,14.30
2022-08-20T03:35:18.109Z,12.48
2022-08-20T03:37:48.234Z,16.58
2022-08-20T03:40:22.442Z,16.10
2022-08-20T03:42:49.803Z,17.37
2022-08-20T03:45:20.492Z,13.23
2022-08-20T03:47:48.252Z,15.13
2022-08-20T03:50:23.550Z,27.02
2022-08-20T03:52:52.087Z,17.87
2022-08-20T03:55:19.505Z,17.60
2022-08-20T03:57:48.149Z,18.58
2022-08-20T04:00:16.535Z,19.17
2022-08-20T04:02:44.191Z,19.70
2022-08-20T04:05:11.561Z,20.65
2022-08-20T04:07:38.951Z,19.05
2022-08-20T04:10:09.917Z,20.90
2022-08-20T04:12:48.683Z,16.58
2022-08-20T04:15:20.835Z,15.55
2022-08-20T04:17:50.163Z,21.67
2022-08-20T04:20:22.640Z,19.58
2022-08-20T04:22:59.107Z,18.12
2022-08-20T04:25:35.784Z,20.33
2022-08-20T04:28:05.493Z,23.23
2022-08-20T04:30:33.387Z,21.25
2022-08-20T04:33:00.975Z,21.42
2022-08-20T04:35:29.313Z,16.92
2022-08-20T04:38:01.413Z,24.60
2022-08-20T04:40:47.561Z,18.62
2022-08-20T04:45:42.754Z,23.05
2022-08-20T04:48:14.763Z,15.48
2022-08-20T04:50:44.824Z,18.35
2022-08-20T04:53:13.274Z,17.02
2022-08-20T04:55:42.842Z,23.08
2022-08-20T04:58:12.384Z,15.23
2022-08-20T05:00:39.821Z,17.40
2022-08-20T05:03:07.209Z,16.90
2022-08-20T05:05:38.207Z,17.08
2022-08-20T05:08:05.622Z,12.37
2022-08-20T05:10:44.318Z,12.37
2022-08-20T05:13:11.760Z,14.02
2022-08-20T05:15:39.168Z,16.87
2022-08-20T05:18:07.902Z,11.38
2022-08-20T05:20:40.516Z,14.13
2022-08-20T05:23:09.594Z,20.92
2022-08-20T05:25:38.194Z,13.75
2022-08-20T05:28:13.373Z,12.50
2022-08-20T05:30:41.601Z,16.48
2022-08-20T05:33:10.066Z,16.98
2022-08-20T05:35:40.767Z,14.07
2022-08-20T05:38:10.518Z,13.95
2022-08-20T05:40:38.535Z,21.15
2022-08-20T05:43:05.988Z,15.52
2022-08-20T05:45:34.085Z,17.75
2022-08-20T05:48:13.767Z,13.95
2022-08-20T05:50:42.371Z,12.77
2022-08-20T05:53:09.770Z,10.38
2022-08-20T05:55:37.497Z,11.45
2022-08-20T05:58:07.245Z,14.07
2022-08-20T06:00:34.845Z,17.58
2022-08-20T06:03:31.711Z,16.75
2022-08-20T06:06:01.490Z,14.23
2022-08-20T06:08:29.123Z,15.38
2022-08-20T06:10:56.528Z,13.30
2022-08-20T06:13:23.983Z,13.27
2022-08-20T06:15:51.667Z,17.87
2022-08-20T06:18:27.669Z,15.48
2022-08-20T06:20:56.438Z,16.12
2022-08-20T06:23:25.291Z,20.33
2022-08-20T06:25:52.893Z,14.13
2022-08-20T06:28:20.546Z,21.02
2022-08-20T06:30:47.926Z,18.17
2022-08-20T06:33:15.272Z,16.37
2022-08-20T06:35:44.648Z,11.35
2022-08-20T06:38:12.848Z,18.98
2022-08-20T06:40:40.343Z,16.48
2022-08-20T06:43:09.096Z,12.77
2022-08-20T06:45:36.518Z,20.10
2022-08-20T06:48:09.811Z,16.08
2022-08-20T06:50:47.172Z,18.45
2022-08-20T06:53:17.274Z,17.50
2022-08-20T06:55:48.834Z,16.30
2022-08-20T06:58:32.792Z,22.83
2022-08-20T07:01:09.642Z,17.37
2022-08-20T07:03:42.164Z,19.23
2022-08-20T07:06:22.010Z,18.62
2022-08-20T07:08:49.389Z,20.60
2022-08-20T07:11:16.754Z,12.07
2022-08-20T07:13:45.371Z,20.37
2022-08-20T07:16:12.821Z,23.00
2022-08-20T07:18:40.221Z,16.37
2022-08-20T07:21:07.910Z,23.67
2022-08-20T07:23:36.357Z,20.12
2022-08-20T07:26:03.992Z,17.55
2022-08-20T07:28:34.448Z,17.75
2022-08-20T07:31:20.600Z,17.00
2022-08-20T07:33:50.246Z,21.90
2022-08-20T07:36:17.941Z,14.63
2022-08-20T07:38:50.887Z,15.90
2022-08-20T07:41:18.794Z,15.07
2022-08-20T07:43:46.421Z,17.60
2022-08-20T07:46:14.997Z,21.65
2022-08-20T07:48:49.527Z,14.95
2022-08-20T07:51:18.368Z,17.35
2022-08-20T07:53:46.777Z,14.85
2022-08-20T07:56:16.200Z,17.17
2022-08-20T07:58:50.095Z,16.90
2022-08-20T08:01:26.087Z,19.87
2022-08-20T08:03:54.013Z,16.95
2022-08-20T08:06:28.321Z,14.98
2022-08-20T08:09:05.830Z,15.65
2022-08-20T08:11:34.578Z,14.82
2022-08-20T08:14:02.486Z,22.25
2022-08-20T08:16:32.612Z,16.02
2022-08-20T08:19:02.117Z,14.82
2022-08-20T08:21:30.682Z,13.52
2022-08-20T08:23:58.286Z,17.52
2022-08-20T08:26:26.377Z,14.35
2022-08-20T08:28:54.346Z,14.32
2022-08-20T08:31:21.688Z,15.07
2022-08-20T08:33:49.060Z,15.73
2022-08-20T08:36:16.801Z,19.75
2022-08-20T08:38:44.852Z,13.55
2022-08-20T08:41:31.827Z,24.92
2022-08-20T08:44:08.270Z,20.42
2022-08-20T08:49:12.938Z,15.17
2022-08-20T08:51:58.464Z,15.68
2022-08-20T08:54:28.699Z,20.58
2022-08-20T08:56:56.200Z,15.63
2022-08-20T08:59:23.666Z,17.12
2022-08-20T09:01:56.907Z,17.75
2022-08-20T09:04:30.393Z,18.12
2022-08-20T09:06:58.782Z,16.48
2022-08-20T09:09:32.198Z,21.85
2022-08-20T09:12:20.916Z,18.90
2022-08-20T09:14:49.192Z,19.85
2022-08-20T09:17:17.770Z,24.55
2022-08-20T09:19:45.781Z,19.73
2022-08-20T09:22:16.332Z,18.85
2022-08-20T09:24:44.056Z,19.52
2022-08-20T09:27:11.526Z,16.60
2022-08-20T09:29:39.493Z,17.08
2022-08-20T09:32:18.886Z,20.00
2022-08-20T09:34:52.039Z,16.83
2022-08-20T09:37:20.346Z,15.18
2022-08-20T09:39:48.087Z,16.67
2022-08-20T09:42:18.914Z,15.95
2022-08-20T09:44:46.608Z,16.77
2022-08-20T09:47:14.087Z,18.05
2022-08-20T09:49:41.488Z,17.83
2022-08-20T09:52:11.286Z,15.25
2022-08-20T09:54:39.063Z,20.08
2022-08-20T09:57:14.220Z,15.82
2022-08-20T09:59:41.603Z,20.08
2022-08-20T10:02:09.119Z,19.48
2022-08-20T10:04:36.784Z,20.73
2022-08-20T10:07:07.646Z,19.87
2022-08-20T10:09:36.183Z,13.38
2022-08-20T10:12:04.413Z,17.10
2022-08-20T10:14:31.823Z,11.30
2022-08-20T10:17:00.110Z,13.70
2022-08-20T10:19:28.114Z,12.40
2022-08-20T10:21:55.459Z,12.73
2022-08-20T10:24:23.170Z,14.20
2022-08-20T10:26:50.824Z,14.93
2022-08-20T10:29:18.713Z,11.07
2022-08-20T10:31:46.096Z,11.48
2022-08-20T10:34:13.740Z,9.15
2022-08-20T10:36:42.097Z,10.07
2022-08-20T10:39:12.579Z,12.55
2022-08-20T10:41:40.216Z,10.73
2022-08-20T10:44:07.723Z,9.70
2022-08-20T10:46:35.086Z,8.13
2022-08-20T10:49:02.773Z,12.48
2022-08-20T10:51:32.417Z,9.88
2022-08-20T10:54:00.669Z,9.90
2022-08-20T10:56:28.401Z,11.95
2022-08-20T10:58:56.070Z,12.02
2022-08-20T11:01:31.624Z,10.25
2022-08-20T11:04:01.647Z,11.23
2022-08-20T11:06:29.049Z,12.10
2022-08-20T11:08:56.931Z,7.50
2022-08-20T11:11:24.896Z,7.00
2022-08-20T11:13:52.291Z,9.00
2022-08-20T11:16:19.656Z,13.30
2022-08-20T11:18:47.877Z,6.80
2022-08-20T11:21:15.246Z,8.20
2022-08-20T11:23:42.613Z,12.60
2022-08-20T11:26:20.856Z,8.48
2022-08-20T11:28:48.298Z,11.30
2022-08-20T11:31:15.948Z,10.05
2022-08-20T11:33:43.334Z,9.88
2022-08-20T11:36:10.700Z,10.38
2022-08-20T11:38:38.359Z,12.48
2022-08-20T11:41:05.933Z,8.73
2022-08-20T11:43:33.660Z,10.13
2022-08-20T11:46:02.700Z,9.35
2022-08-20T11:48:30.080Z,11.80
2022-08-20T11:50:57.522Z,7.05
2022-08-20T11:53:25.206Z,7.35
2022-08-20T11:55:52.756Z,8.70
2022-08-20T11:58:20.187Z,8.30
2022-08-20T12:00:47.937Z,10.75
2022-08-20T12:03:15.670Z,10.80
2022-08-20T12:05:44.880Z,8.55
2022-08-20T12:08:26.668Z,14.05
2022-08-20T12:10:59.893Z,10.70
2022-08-20T12:13:46.585Z,10.10
2022-08-20T12:16:19.346Z,7.28
2022-08-20T12:18:47.079Z,11.32
2022-08-20T12:21:14.450Z,15.85
2022-08-20T12:23:42.096Z,7.35
2022-08-20T12:26:09.500Z,8.27
2022-08-20T12:28:36.888Z,8.70
2022-08-20T12:31:05.023Z,10.60
2022-08-20T12:33:32.447Z,8.50
2022-08-20T12:35:59.844Z,10.75
2022-08-20T12:38:27.587Z,9.60
2022-08-20T12:40:54.958Z,11.93
2022-08-20T12:43:25.020Z,10.57
2022-08-20T12:45:53.050Z,14.35
2022-08-20T12:48:20.956Z,9.38
2022-08-20T12:50:50.101Z,11.77
2022-08-20T12:53:17.929Z,12.90
2022-08-20T12:55:45.915Z,7.95
2022-08-20T12:58:13.298Z,8.80
2022-08-20T13:00:44.331Z,8.65
2022-08-20T13:03:14.738Z,11.12
2022-08-20T13:05:42.476Z,12.82
2022-08-20T13:08:10.717Z,11.75
2022-08-20T13:10:45.672Z,9.02
2022-08-20T13:13:14.506Z,15.25
2022-08-20T13:15:41.878Z,8.35
2022-08-20T13:18:09.283Z,11.07
2022-08-20T13:20:37.322Z,9.63
2022-08-20T13:23:05.164Z,10.13
2022-08-20T13:25:32.821Z,11.63
2022-08-20T13:28:02.305Z,8.05
2022-08-20T13:30:29.771Z,11.07
2022-08-20T13:32:57.277Z,11.00
2022-08-20T13:35:25.043Z,8.88
2022-08-20T13:37:52.417Z,9.05
2022-08-20T13:40:19.923Z,6.57
2022-08-20T13:42:47.608Z,7.43
2022-08-20T13:45:14.956Z,16.77
2022-08-20T13:47:42.520Z,6.97
2022-08-20T13:50:16.584Z,12.13
2022-08-20T13:52:43.939Z,7.75
2022-08-20T13:55:14.107Z,11.40
2022-08-20T13:57:42.570Z,8.45
2022-08-20T14:00:16.292Z,8.18
2022-08-20T14:02:43.967Z,6.20
2022-08-20T14:05:12.081Z,11.70
2022-08-20T14:07:42.574Z,11.85
2022-08-20T14:10:16.590Z,14.18
2022-08-20T14:12:44.023Z,10.23
2022-08-20T14:15:12.064Z,16.17
2022-08-20T14:17:43.849Z,11.43
2022-08-20T14:20:13.384Z,8.88
2022-08-20T14:22:41.367Z,11.57
2022-08-20T14:25:09.536Z,14.38
2022-08-20T14:27:36.984Z,13.32
2022-08-20T14:30:06.274Z,14.82
2022-08-20T14:32:33.720Z,13.30
2022-08-20T14:35:02.192Z,12.95
2022-08-20T14:37:33.384Z,9.43
2022-08-20T14:40:01.661Z,12.27
2022-08-20T14:42:29.691Z,10.65
2022-08-20T14:44:58.641Z,12.25
2022-08-20T14:47:30.365Z,13.00
2022-08-20T14:50:03.508Z,13.13
2022-08-20T14:52:33.778Z,11.65
2022-08-20T14:55:01.414Z,9.23
2022-08-20T14:57:30.265Z,13.80
2022-08-20T14:59:57.607Z,13.05
2022-08-20T15:02:25.290Z,12.45
2022-08-20T15:04:54.128Z,12.10
2022-08-20T15:07:27.580Z,14.50
2022-08-20T15:09:55.314Z,11.02
2022-08-20T15:12:23.110Z,10.20
2022-08-20T15:14:50.810Z,12.40
2022-08-20T15:17:26.510Z,15.18
2022-08-20T15:19:53.961Z,13.15
2022-08-20T15:22:21.954Z,18.02
2022-08-20T15:24:49.470Z,11.60
2022-08-20T15:27:24.024Z,9.32
2022-08-20T15:29:51.800Z,12.02
2022-08-20T15:32:19.604Z,11.00
2022-08-20T15:34:47.385Z,11.68
2022-08-20T15:37:15.590Z,10.23
2022-08-20T15:39:43.108Z,9.60
2022-08-20T15:42:10.970Z,13.48
2022-08-20T15:44:38.401Z,10.82
2022-08-20T15:47:31.985Z,13.73
2022-08-20T15:50:13.985Z,10.00
2022-08-20T15:52:42.749Z,14.05
2022-08-20T15:55:11.622Z,12.90
2022-08-20T15:57:50.033Z,13.05
2022-08-20T16:00:26.061Z,12.98
2022-08-20T16:06:03.726Z,10.23
2022-08-20T16:09:00.218Z,9.98
2022-08-20T16:11:53.097Z,9.48
2022-08-20T16:14:22.955Z,11.90
2022-08-20T16:17:01.493Z,10.65
2022-08-20T16:19:36.515Z,8.50
2022-08-20T16:22:04.052Z,11.30
2022-08-20T16:24:32.171Z,10.43
2022-08-20T16:27:08.605Z,10.48
2022-08-20T16:30:00.418Z,12.07
2022-08-20T16:32:31.078Z,10.77
2022-08-20T16:35:00.352Z,16.87
2022-08-20T16:37:55.880Z,9.40
2022-08-20T16:40:39.450Z,9.52
2022-08-20T16:43:07.398Z,11.77
2022-08-20T16:45:51.068Z,10.60
2022-08-20T16:48:19.180Z,16.50
2022-08-20T16:50:58.930Z,9.48
2022-08-20T16:53:26.341Z,8.40
2022-08-20T16:55:54.113Z,10.70
2022-08-20T16:58:21.684Z,12.60
2022-08-20T17:00:49.106Z,13.25
2022-08-20T17:03:33.620Z,12.02
2022-08-20T17:06:23.074Z,8.18
2022-08-20T17:08:52.164Z,11.63
2022-08-20T17:11:31.977Z,10.02
2022-08-20T17:14:07.248Z,11.27
2022-08-20T17:16:49.354Z,11.70
2022-08-20T17:19:28.739Z,11.98
2022-08-20T17:21:56.987Z,17.77
2022-08-20T17:24:27.159Z,9.57
2022-08-20T17:27:01.725Z,12.02
2022-08-20T17:29:31.407Z,14.35
2022-08-20T17:32:00.841Z,10.93
2022-08-20T17:34:32.192Z,12.07
2022-08-20T17:37:08.965Z,7.80
2022-08-20T17:39:44.500Z,16.98
2022-08-20T17:42:17.592Z,13.18
2022-08-20T17:45:08.721Z,11.57
2022-08-20T17:47:36.841Z,9.13
2022-08-20T17:50:13.365Z,13.70
2022-08-20T17:52:47.548Z,10.00
2022-08-20T17:55:14.966Z,12.27
2022-08-20T17:57:44.648Z,9.38
2022-08-20T18:00:15.559Z,14.70
2022-08-20T18:02:43.273Z,15.75
2022-08-20T18:05:19.113Z,10.60
2022-08-20T18:08:06.608Z,10.98
2022-08-20T18:10:50.873Z,10.88
2022-08-20T18:13:19.315Z,15.63
2022-08-20T18:15:53.840Z,15.95
2022-08-20T18:18:55.054Z,12.82
2022-08-20T18:21:50.242Z,16.30
2022-08-20T18:24:20.593Z,12.13
2022-08-20T18:26:58.056Z,12.98
2022-08-20T18:29:35.680Z,13.00
2022-08-20T18:32:26.739Z,10.98
2022-08-20T18:34:54.558Z,16.45
2022-08-20T18:37:25.436Z,16.90
2022-08-20T18:39:52.878Z,12.77
2022-08-20T18:42:31.992Z,17.33
2022-08-20T18:44:59.582Z,10.18
2022-08-20T18:47:33.464Z,12.93
2022-08-20T18:50:16.882Z,13.73
2022-08-20T18:52:52.470Z,10.82
2022-08-20T18:55:43.746Z,13.45
2022-08-20T18:58:13.494Z,15.15
2022-08-20T19:00:47.626Z,18.37
2022-08-20T19:03:32.156Z,16.65
2022-08-20T19:06:09.110Z,15.15
2022-08-20T19:08:42.830Z,15.75
2022-08-20T19:11:50.795Z,13.38
2022-08-20T19:14:40.242Z,14.07
2022-08-20T19:17:20.326Z,14.87
2022-08-20T19:19:58.594Z,16.12
2022-08-20T19:22:27.243Z,13.43
2022-08-20T19:24:56.704Z,13.70
2022-08-20T19:27:26.000Z,11.75
2022-08-20T19:29:56.773Z,18.12
2022-08-20T19:32:26.755Z,13.77
2022-08-20T19:34:58.826Z,14.98
2022-08-20T19:37:40.011Z,15.65
2022-08-20T19:40:28.442Z,10.63
2022-08-20T19:42:58.289Z,11.68
2022-08-20T19:45:30.950Z,11.48
2022-08-20T19:48:07.977Z,15.85
2022-08-20T19:50:57.269Z,18.33
2022-08-20T19:53:30.474Z,12.57
2022-08-20T19:56:06.699Z,14.48
2022-08-20T19:58:34.443Z,16.40
2022-08-20T20:01:02.793Z,19.75
2022-08-20T20:03:33.674Z,15.13
2022-08-20T20:06:17.100Z,18.58
2022-08-20T20:08:53.552Z,16.12
2022-08-20T20:11:23.685Z,15.05
2022-08-20T20:13:51.332Z,12.88
2022-08-20T20:16:20.208Z,13.73
2022-08-20T20:18:54.895Z,12.13
2022-08-20T20:21:51.818Z,15.73
2022-08-20T20:24:30.025Z,14.50
2022-08-20T20:26:58.712Z,15.50
2022-08-20T20:29:34.313Z,15.73
2022-08-20T20:32:02.723Z,15.18
2022-08-20T20:34:35.577Z,15.93
2022-08-20T20:37:37.929Z,14.85
2022-08-20T20:40:25.422Z,15.75
2022-08-20T20:43:12.030Z,17.90
2022-08-20T20:45:58.070Z,12.63
2022-08-20T20:48:26.641Z,16.52
2022-08-20T20:51:00.238Z,12.55
2022-08-20T20:53:47.447Z,17.27
2022-08-20T20:56:36.656Z,13.30
2022-08-20T20:59:06.786Z,13.57
2022-08-20T21:01:47.897Z,15.80
2022-08-20T21:04:21.921Z,17.52
2022-08-20T21:06:50.016Z,11.45
2022-08-20T21:09:18.722Z,13.23
2022-08-20T21:11:46.265Z,11.77
2022-08-20T21:14:13.924Z,11.07
2022-08-20T21:16:41.812Z,11.00
2022-08-20T21:19:09.944Z,10.50
2022-08-20T21:21:38.309Z,11.73
2022-08-20T21:24:06.241Z,10.80
2022-08-20T21:26:33.599Z,9.65
2022-08-20T21:29:01.142Z,11.18
2022-08-20T21:31:36.137Z,6.62
2022-08-20T21:34:03.525Z,7.50
2022-08-20T21:36:31.181Z,9.70
2022-08-20T21:38:58.565Z,7.93
2022-08-20T21:41:29.767Z,8.00
2022-08-20T21:43:59.319Z,9.27
2022-08-20T21:46:28.678Z,7.25
2022-08-20T21:48:56.236Z,7.28
2022-08-20T21:51:23.885Z,8.63
2022-08-20T21:53:52.010Z,6.43
2022-08-20T21:56:19.395Z,6.43
2022-08-20T21:58:47.495Z,6.10
2022-08-20T22:01:14.985Z,5.97
2022-08-20T22:03:42.745Z,5.62
2022-08-20T22:06:11.630Z,6.22
2022-08-20T22:08:39.122Z,6.57
2022-08-20T22:11:07.810Z,6.12
2022-08-20T22:13:35.306Z,6.55
2022-08-20T22:16:04.607Z,7.43
2022-08-20T22:18:32.407Z,7.80
2022-08-20T22:20:59.749Z,7.50
2022-08-20T22:23:27.342Z,5.22
2022-08-20T22:25:55.009Z,5.43
2022-08-20T22:28:22.420Z,8.23
2022-08-20T22:30:49.926Z,6.28
2022-08-20T22:33:20.485Z,6.47
2022-08-20T22:35:49.644Z,6.93
2022-08-20T22:38:17.042Z,5.90
2022-08-20T22:40:44.833Z,6.75
2022-08-20T22:43:12.206Z,5.87
2022-08-20T22:45:39.766Z,8.52
2022-08-20T22:48:07.570Z,4.90
2022-08-20T22:50:36.703Z,5.40
2022-08-20T22:53:04.231Z,6.03
2022-08-20T22:55:31.861Z,7.28
2022-08-20T22:57:59.314Z,7.90
2022-08-20T23:00:28.355Z,5.10
2022-08-20T23:02:57.030Z,6.05
2022-08-20T23:05:25.756Z,7.75
2022-08-20T23:07:54.483Z,4.65
2022-08-20T23:10:23.053Z,8.95
2022-08-20T23:12:50.533Z,5.55
2022-08-20T23:15:17.978Z,8.82
2022-08-20T23:17:45.705Z,4.50
2022-08-20T23:20:14.933Z,5.30
2022-08-20T23:22:42.475Z,5.40
2022-08-20T23:25:10.584Z,7.22
2022-08-20T23:28:03.493Z,5.55
2022-08-20T23:30:32.084Z,6.32
2022-08-20T23:33:01.596Z,5.30
2022-08-20T23:35:29.846Z,6.18
2022-08-20T23:38:00.674Z,7.62
2022-08-20T23:40:28.967Z,5.37
2022-08-20T23:42:56.667Z,5.62
2022-08-20T23:45:24.618Z,6.30
2022-08-20T23:47:51.990Z,4.78
2022-08-20T23:50:21.681Z,7.53
2022-08-20T23:52:52.708Z,5.25
2022-08-20T23:55:20.640Z,5.00
2022-08-20T23:57:47.999Z,7.82
